createdAt,value
2018-04-19T00:01:06.095Z,21.62
2018-04-19T00:03:43.188Z,21.60
2018-04-19T00:06:13.582Z,21.56
2018-04-19T00:08:44.180Z,21.50
2018-04-19T00:11:14.822Z,21.45
2018-04-19T00:13:45.715Z,21.44
2018-04-19T00:16:22.353Z,21.44
2018-04-19T00:18:53.476Z,21.42
2018-04-19T00:21:23.766Z,21.38
2018-04-19T00:23:55.217Z,21.35
2018-04-19T00:26:25.583Z,21.40
2018-04-19T00:28:56.136Z,21.39
2018-04-19T00:31:27.862Z,21.28
2018-04-19T00:33:58.323Z,21.28
2018-04-19T00:36:28.654Z,21.21
2018-04-19T00:39:03.254Z,21.05
2018-04-19T00:41:34.555Z,21.15
2018-04-19T00:44:05.970Z,21.08
2018-04-19T00:46:41.674Z,21.03
2018-04-19T00:49:12.055Z,21.02
2018-04-19T00:51:42.203Z,20.99
2018-04-19T00:54:12.749Z,20.91
2018-04-19T00:56:43.014Z,20.95
2018-04-19T00:59:13.516Z,20.88
2018-04-19T01:01:44.748Z,20.86
2018-04-19T01:04:14.944Z,20.88
2018-04-19T01:06:45.171Z,20.83
2018-04-19T01:09:15.367Z,20.80
2018-04-19T01:11:45.464Z,20.70
2018-04-19T01:14:15.882Z,20.75
2018-04-19T01:16:46.611Z,20.71
2018-04-19T01:22:15.581Z,20.77
2018-04-19T01:24:46.283Z,20.79
2018-04-19T01:27:16.553Z,20.71
2018-04-19T01:29:46.870Z,20.62
2018-04-19T01:32:17.439Z,20.59
2018-04-19T01:34:47.579Z,20.61
2018-04-19T01:37:17.835Z,20.66
2018-04-19T01:39:48.117Z,20.68
2018-04-19T01:42:18.664Z,20.74
2018-04-19T01:44:49.657Z,20.85
2018-04-19T01:47:20.217Z,20.89
2018-04-19T01:49:50.670Z,20.94
2018-04-19T01:52:21.039Z,20.93
2018-04-19T01:54:51.164Z,20.87
2018-04-19T01:57:21.455Z,20.91
2018-04-19T01:59:51.619Z,20.98
2018-04-19T02:02:22.903Z,20.93
2018-04-19T02:04:54.240Z,20.97
2018-04-19T02:07:26.733Z,20.93
2018-04-19T02:09:59.872Z,20.99
2018-04-19T02:12:31.172Z,21.01
2018-04-19T02:15:03.283Z,21.00
2018-04-19T02:17:34.635Z,20.84
2018-04-19T02:20:06.751Z,20.35
2018-04-19T02:22:37.082Z,20.23
2018-04-19T02:25:08.300Z,20.14
2018-04-19T02:27:38.823Z,19.96
2018-04-19T02:30:10.145Z,20.03
2018-04-19T02:32:43.869Z,20.00
2018-04-19T02:35:13.974Z,20.08
2018-04-19T02:37:44.473Z,20.03
2018-04-19T02:40:15.864Z,20.03
2018-04-19T02:42:47.206Z,19.93
2018-04-19T02:45:18.452Z,19.79
2018-04-19T02:47:49.838Z,19.67
2018-04-19T02:50:21.265Z,19.60
2018-04-19T02:52:52.669Z,19.60
2018-04-19T02:55:23.375Z,19.63
2018-04-19T02:57:54.341Z,19.56
2018-04-19T03:00:25.477Z,19.45
2018-04-19T03:02:57.524Z,19.44
2018-04-19T03:05:28.169Z,19.43
2018-04-19T03:08:00.050Z,19.35
2018-04-19T03:10:45.074Z,19.32
2018-04-19T03:13:36.172Z,19.29
2018-04-19T03:16:07.766Z,19.10
2018-04-19T03:18:39.430Z,19.05
2018-04-19T03:21:10.774Z,18.91
2018-04-19T03:23:42.076Z,18.79
2018-04-19T03:26:13.544Z,18.92
2018-04-19T03:28:44.796Z,18.92
2018-04-19T03:31:16.429Z,18.95
2018-04-19T03:33:48.914Z,18.87
2018-04-19T03:36:20.082Z,18.88
2018-04-19T03:38:51.344Z,18.91
2018-04-19T03:41:22.661Z,19.01
2018-04-19T03:43:53.972Z,19.09
2018-04-19T03:46:25.767Z,19.12
2018-04-19T03:48:57.437Z,19.18
2018-04-19T03:51:28.697Z,18.98
2018-04-19T03:53:59.975Z,18.52
2018-04-19T03:56:31.283Z,18.05
2018-04-19T03:59:13.041Z,18.02
2018-04-19T04:01:44.943Z,18.15
2018-04-19T04:04:16.525Z,18.07
2018-04-19T04:06:48.600Z,18.14
2018-04-19T04:09:20.008Z,17.91
2018-04-19T04:11:51.364Z,17.63
2018-04-19T04:14:22.733Z,17.74
2018-04-19T04:18:09.107Z,17.57
2018-04-19T04:21:19.936Z,17.52
2018-04-19T04:23:56.043Z,17.75
2018-04-19T04:26:27.363Z,17.85
2018-04-19T04:28:59.458Z,17.87
2018-04-19T04:31:31.681Z,17.95
2018-04-19T04:36:41.769Z,17.75
2018-04-19T04:39:13.235Z,17.69
2018-04-19T04:41:44.975Z,17.79
2018-04-19T04:44:20.958Z,18.00
2018-04-19T04:49:42.151Z,18.34
2018-04-19T04:52:14.872Z,18.28
2018-04-19T04:54:46.795Z,18.41
2018-04-19T04:57:19.142Z,18.53
2018-04-19T04:59:50.576Z,18.73
2018-04-19T05:02:22.428Z,18.68
2018-04-19T05:04:53.683Z,18.83
2018-04-19T05:07:27.663Z,18.92
2018-04-19T05:10:00.913Z,18.90
2018-04-19T05:12:33.389Z,18.82
2018-04-19T05:15:06.733Z,18.96
2018-04-19T05:17:44.134Z,19.12
2018-04-19T05:20:27.366Z,19.41
2018-04-19T05:22:59.459Z,19.63
2018-04-19T05:25:30.787Z,19.82
2018-04-19T05:28:02.410Z,19.60
2018-04-19T05:30:40.459Z,20.02
2018-04-19T05:33:11.959Z,20.23
2018-04-19T05:35:43.781Z,20.28
2018-04-19T05:38:17.566Z,20.64
2018-04-19T05:40:57.945Z,20.89
2018-04-19T05:43:29.776Z,20.90
2018-04-19T05:46:10.661Z,21.20
2018-04-19T05:49:56.060Z,21.43
2018-04-19T05:52:27.426Z,21.52
2018-04-19T05:54:59.038Z,21.84
2018-04-19T05:57:39.757Z,22.35
2018-04-19T06:00:16.479Z,22.68
2018-04-19T06:02:49.610Z,22.99
2018-04-19T06:05:29.240Z,22.95
2018-04-19T06:08:00.861Z,22.88
2018-04-19T06:10:36.741Z,23.55
2018-04-19T06:13:08.234Z,23.64
2018-04-19T06:15:41.189Z,24.04
2018-04-19T06:18:12.902Z,23.01
2018-04-19T06:20:50.010Z,23.02
2018-04-19T06:23:24.161Z,23.84
2018-04-19T06:25:56.915Z,24.08
2018-04-19T06:28:28.764Z,24.66
2018-04-19T06:31:01.489Z,24.84
2018-04-19T06:33:33.778Z,24.44
2018-04-19T06:36:05.466Z,24.14
2018-04-19T06:38:38.947Z,24.52
2018-04-19T06:41:13.661Z,25.23
2018-04-19T06:43:45.926Z,25.44
2018-04-19T06:46:22.922Z,25.67
2018-04-19T06:48:55.187Z,25.66
2018-04-19T06:51:31.809Z,25.84
2018-04-19T06:54:03.351Z,26.50
2018-04-19T06:56:34.860Z,26.46
2018-04-19T06:59:08.430Z,26.73
2018-04-19T07:01:40.668Z,27.10
2018-04-19T07:04:12.126Z,27.36
2018-04-19T07:06:43.446Z,26.85
2018-04-19T07:09:35.266Z,27.38
2018-04-19T07:12:07.755Z,27.64
2018-04-19T07:14:41.720Z,26.28
2018-04-19T07:17:16.557Z,26.92
2018-04-19T07:19:48.464Z,27.83
2018-04-19T07:22:19.677Z,28.31
2018-04-19T07:24:54.546Z,28.19
2018-04-19T07:27:33.707Z,28.26
2018-04-19T07:30:08.533Z,28.20
2018-04-19T07:32:42.182Z,28.51
2018-04-19T07:35:14.226Z,28.57
2018-04-19T07:37:51.161Z,28.93
2018-04-19T07:40:22.885Z,28.35
2018-04-19T07:42:55.471Z,28.95
2018-04-19T07:45:31.559Z,28.07
2018-04-19T07:48:05.293Z,28.61
2018-04-19T07:50:39.010Z,28.90
2018-04-19T07:53:10.659Z,29.12
2018-04-19T07:55:42.522Z,29.11
2018-04-19T07:58:14.187Z,29.29
2018-04-19T08:00:49.933Z,28.93
2018-04-19T08:03:24.356Z,29.83
2018-04-19T08:05:57.095Z,30.35
2018-04-19T08:08:28.018Z,30.41
2018-04-19T08:11:00.456Z,30.17
2018-04-19T08:13:33.270Z,29.74
2018-04-19T08:16:05.812Z,30.34
2018-04-19T08:18:41.097Z,30.65
2018-04-19T08:21:13.729Z,30.80
2018-04-19T08:23:54.703Z,31.12
2018-04-19T08:26:27.717Z,29.95
2018-04-19T08:29:04.727Z,30.73
2018-04-19T08:31:39.592Z,30.19
2018-04-19T08:34:11.615Z,30.35
2018-04-19T08:36:43.802Z,31.01
2018-04-19T08:39:15.247Z,30.93
2018-04-19T08:41:47.575Z,31.37
2018-04-19T08:44:19.551Z,31.28
2018-04-19T08:46:58.246Z,31.33
2018-04-19T08:49:30.928Z,31.41
2018-04-19T08:52:03.285Z,31.71
2018-04-19T08:54:34.926Z,31.45
2018-04-19T08:57:06.668Z,31.27
2018-04-19T08:59:39.357Z,31.66
2018-04-19T09:02:14.196Z,31.10
2018-04-19T09:04:50.285Z,31.13
2018-04-19T09:07:26.290Z,31.64
2018-04-19T09:10:00.526Z,31.19
2018-04-19T09:12:49.566Z,30.45
2018-04-19T09:15:26.848Z,30.61
2018-04-19T09:17:59.748Z,30.48
2018-04-19T09:20:34.157Z,31.62
2018-04-19T09:23:06.703Z,32.03
2018-04-19T09:25:38.932Z,32.22
2018-04-19T09:28:15.281Z,30.65
2018-04-19T09:30:48.675Z,30.75
2018-04-19T09:33:23.011Z,31.56
2018-04-19T09:35:54.688Z,31.84
2018-04-19T09:38:26.067Z,31.78
2018-04-19T09:40:58.115Z,32.23
2018-04-19T09:43:30.249Z,32.68
2018-04-19T09:46:02.730Z,32.39
2018-04-19T09:48:35.953Z,32.54
2018-04-19T09:51:08.630Z,32.93
2018-04-19T09:53:41.512Z,32.86
2018-04-19T09:56:13.558Z,33.67
2018-04-19T09:58:48.145Z,33.91
2018-04-19T10:01:21.735Z,33.69
2018-04-19T10:03:54.328Z,33.37
2018-04-19T10:09:25.419Z,33.94
2018-04-19T10:11:58.527Z,34.17
2018-04-19T10:14:34.082Z,34.40
2018-04-19T10:17:17.148Z,34.58
2018-04-19T10:19:49.737Z,35.10
2018-04-19T10:22:24.578Z,34.95
2018-04-19T10:27:33.235Z,35.16
2018-04-19T10:30:07.712Z,34.98
2018-04-19T10:32:43.159Z,34.44
2018-04-19T10:35:25.323Z,33.47
2018-04-19T10:37:58.789Z,33.37
2018-04-19T10:40:31.177Z,33.83
2018-04-19T10:43:04.641Z,34.62
2018-04-19T10:45:41.633Z,35.22
2018-04-19T10:48:14.622Z,35.17
2018-04-19T10:50:48.294Z,35.44
2018-04-19T10:53:23.913Z,35.07
2018-04-19T10:55:59.912Z,35.22
2018-04-19T10:58:33.761Z,35.36
2018-04-19T11:01:09.799Z,35.11
2018-04-19T11:03:42.886Z,35.49
2018-04-19T11:06:15.788Z,35.60
2018-04-19T11:08:49.683Z,35.62
2018-04-19T11:11:23.654Z,35.14
2018-04-19T11:13:57.405Z,33.38
2018-04-19T11:16:29.662Z,32.69
2018-04-19T11:19:01.288Z,34.14
2018-04-19T11:21:33.049Z,34.99
2018-04-19T11:24:05.282Z,35.67
2018-04-19T11:26:42.417Z,35.73
2018-04-19T11:29:14.601Z,36.24
2018-04-19T11:31:47.589Z,36.53
2018-04-19T11:34:23.513Z,36.75
2018-04-19T11:36:55.173Z,34.95
2018-04-19T11:39:32.253Z,36.16
2018-04-19T11:42:05.036Z,35.75
2018-04-19T11:44:37.799Z,35.79
2018-04-19T11:47:18.372Z,35.77
2018-04-19T11:50:02.162Z,35.93
2018-04-19T11:52:42.725Z,35.99
2018-04-19T11:55:16.248Z,36.20
2018-04-19T11:58:10.885Z,36.35
2018-04-19T12:00:52.803Z,35.99
2018-04-19T12:03:25.823Z,34.16
2018-04-19T12:05:57.824Z,35.28
2018-04-19T12:08:30.995Z,36.06
2018-04-19T12:11:14.864Z,36.22
2018-04-19T12:13:51.104Z,36.17
2018-04-19T12:16:28.902Z,36.73
2018-04-19T12:19:11.977Z,36.63
2018-04-19T12:21:45.683Z,36.67
2018-04-19T12:24:18.004Z,37.11
2018-04-19T12:26:50.030Z,36.65
2018-04-19T12:29:23.438Z,36.52
2018-04-19T12:31:56.704Z,36.73
2018-04-19T12:34:28.083Z,36.89
2018-04-19T12:37:01.208Z,35.98
2018-04-19T12:39:34.702Z,35.71
2018-04-19T12:42:06.785Z,35.19
2018-04-19T12:44:50.524Z,34.68
2018-04-19T12:47:26.596Z,34.20
2018-04-19T12:50:01.086Z,35.31
2018-04-19T12:52:33.795Z,36.29
2018-04-19T12:55:07.406Z,36.96
2018-04-19T12:57:39.839Z,36.65
2018-04-19T13:00:15.497Z,35.48
2018-04-19T13:02:47.180Z,36.14
2018-04-19T13:05:21.125Z,36.19
2018-04-19T13:07:53.410Z,35.90
2018-04-19T13:10:24.814Z,36.97
2018-04-19T13:12:57.540Z,36.32
2018-04-19T13:15:29.837Z,37.01
2018-04-19T13:18:04.028Z,36.91
2018-04-19T13:20:49.825Z,37.40
2018-04-19T13:23:21.943Z,37.58
2018-04-19T13:25:57.409Z,35.59
2018-04-19T13:28:29.424Z,35.10
2018-04-19T13:31:01.630Z,35.11
2018-04-19T13:33:33.814Z,36.34
2018-04-19T13:36:07.663Z,36.51
2018-04-19T13:38:40.826Z,36.53
2018-04-19T13:41:12.703Z,35.31
2018-04-19T13:43:45.834Z,34.51
2018-04-19T13:46:17.773Z,35.52
2018-04-19T13:48:50.589Z,35.46
2018-04-19T13:51:24.905Z,36.38
2018-04-19T13:53:59.330Z,36.06
2018-04-19T13:56:31.017Z,35.63
2018-04-19T13:59:02.941Z,35.00
2018-04-19T14:01:36.469Z,34.08
2018-04-19T14:04:08.134Z,33.78
2018-04-19T14:06:44.965Z,34.57
2018-04-19T14:09:17.615Z,35.78
2018-04-19T14:11:49.817Z,35.39
2018-04-19T14:14:21.625Z,34.34
2018-04-19T14:16:53.778Z,34.55
2018-04-19T14:19:26.918Z,34.29
2018-04-19T14:21:58.489Z,34.86
2018-04-19T14:24:30.511Z,35.28
2018-04-19T14:27:02.361Z,35.52
2018-04-19T14:29:34.992Z,35.81
2018-04-19T14:32:07.121Z,35.91
2018-04-19T14:34:39.028Z,35.89
2018-04-19T14:37:14.111Z,35.69
2018-04-19T14:39:48.668Z,35.87
2018-04-19T14:42:20.710Z,35.67
2018-04-19T14:44:55.199Z,35.63
2018-04-19T14:47:34.152Z,35.34
2018-04-19T14:50:06.426Z,35.74
2018-04-19T14:52:45.210Z,35.77
2018-04-19T14:55:17.734Z,35.91
2018-04-19T15:00:48.054Z,35.19
2018-04-19T15:03:20.241Z,35.34
2018-04-19T15:05:54.298Z,35.13
2018-04-19T15:08:31.975Z,35.14
2018-04-19T15:11:03.838Z,34.99
2018-04-19T15:13:37.513Z,34.81
2018-04-19T15:16:09.825Z,34.59
2018-04-19T15:18:42.294Z,34.38
2018-04-19T15:21:14.939Z,34.17
2018-04-19T15:23:54.160Z,34.13
2018-04-19T15:26:26.828Z,33.66
2018-04-19T15:29:03.867Z,33.53
2018-04-19T15:31:36.858Z,33.77
2018-04-19T15:34:10.049Z,33.29
2018-04-19T15:36:41.902Z,33.45
2018-04-19T15:39:54.286Z,32.92
2018-04-19T15:42:27.992Z,33.02
2018-04-19T15:45:00.147Z,33.04
2018-04-19T15:47:37.551Z,32.72
2018-04-19T15:50:10.056Z,32.66
2018-04-19T15:52:44.483Z,32.84
2018-04-19T15:55:17.293Z,32.63
2018-04-19T15:57:51.888Z,32.19
2018-04-19T16:00:25.327Z,32.47
2018-04-19T16:03:00.291Z,32.54
2018-04-19T16:05:32.971Z,32.52
2018-04-19T16:08:14.248Z,32.46
2018-04-19T16:10:46.229Z,32.44
2018-04-19T16:13:18.572Z,32.45
2018-04-19T16:15:54.515Z,32.31
2018-04-19T16:18:27.040Z,32.24
2018-04-19T16:21:01.887Z,32.07
2018-04-19T16:23:40.299Z,32.36
2018-04-19T16:26:13.690Z,32.34
2018-04-19T16:28:49.001Z,32.13
2018-04-19T16:31:23.653Z,32.22
2018-04-19T16:33:56.170Z,32.24
2018-04-19T16:36:29.057Z,32.30
2018-04-19T16:39:01.918Z,31.60
2018-04-19T16:41:35.803Z,32.10
2018-04-19T16:44:08.922Z,32.04
2018-04-19T16:46:41.601Z,32.18
2018-04-19T16:49:16.874Z,32.15
2018-04-19T16:52:00.406Z,32.05
2018-04-19T16:54:32.828Z,32.19
2018-04-19T16:57:04.361Z,32.02
2018-04-19T16:59:40.012Z,31.82
2018-04-19T17:02:12.231Z,31.74
2018-04-19T17:04:51.662Z,31.91
2018-04-19T17:07:26.525Z,31.97
2018-04-19T17:09:59.088Z,31.76
2018-04-19T17:12:32.246Z,31.73
2018-04-19T17:15:16.444Z,31.73
2018-04-19T17:17:51.002Z,31.50
2018-04-19T17:20:22.603Z,31.31
2018-04-19T17:22:54.143Z,31.33
2018-04-19T17:25:31.517Z,31.32
2018-04-19T17:28:04.409Z,31.35
2018-04-19T17:30:38.195Z,31.30
2018-04-19T17:33:09.888Z,31.01
2018-04-19T17:35:42.729Z,31.17
2018-04-19T17:38:14.743Z,30.82
2018-04-19T17:40:49.159Z,30.95
2018-04-19T17:43:21.963Z,30.56
2018-04-19T17:45:57.077Z,30.52
2018-04-19T17:48:28.962Z,30.82
2018-04-19T17:51:02.834Z,30.65
2018-04-19T17:53:35.027Z,30.54
2018-04-19T17:56:13.550Z,30.33
2018-04-19T17:58:55.058Z,30.36
2018-04-19T18:01:29.016Z,30.23
2018-04-19T18:04:06.662Z,30.13
2018-04-19T18:06:42.184Z,29.97
2018-04-19T18:09:16.735Z,29.95
2018-04-19T18:11:53.089Z,29.81
2018-04-19T18:14:26.574Z,29.73
2018-04-19T18:17:02.083Z,29.97
2018-04-19T18:19:35.058Z,30.09
2018-04-19T18:22:17.035Z,30.03
2018-04-19T18:24:51.567Z,30.08
2018-04-19T18:27:23.003Z,30.01
2018-04-19T18:30:05.881Z,30.05
2018-04-19T18:32:42.561Z,29.99
2018-04-19T18:35:23.021Z,29.94
2018-04-19T18:44:30.011Z,29.84
2018-04-19T18:47:01.975Z,29.21
2018-04-19T18:49:36.948Z,29.08
2018-04-19T18:52:11.231Z,28.87
2018-04-19T18:54:53.712Z,28.92
2018-04-19T18:57:26.575Z,29.03
2018-04-19T19:00:07.892Z,29.06
2018-04-19T19:02:41.243Z,29.07
2018-04-19T19:05:13.392Z,29.01
2018-04-19T19:07:45.302Z,28.98
2018-04-19T19:10:18.642Z,28.92
2018-04-19T19:12:50.223Z,28.84
2018-04-19T19:15:29.079Z,28.78
2018-04-19T19:22:41.630Z,28.66
2018-04-19T19:25:19.412Z,27.98
2018-04-19T19:27:56.075Z,27.88
2018-04-19T19:30:32.719Z,27.79
2018-04-19T19:33:08.880Z,27.83
2018-04-19T19:35:41.570Z,27.79
2018-04-19T19:38:14.619Z,27.59
2018-04-19T19:40:47.471Z,27.37
2018-04-19T19:43:22.447Z,27.17
2018-04-19T19:45:58.065Z,26.84
2018-04-19T19:48:30.904Z,27.04
2018-04-19T19:51:05.184Z,26.83
2018-04-19T19:53:54.428Z,26.79
2018-04-19T19:56:30.940Z,26.60
2018-04-19T19:59:23.440Z,26.41
2018-04-19T20:01:58.187Z,26.37
2018-04-19T20:04:29.615Z,26.23
2018-04-19T20:07:03.618Z,26.24
2018-04-19T20:09:36.055Z,26.15
2018-04-19T20:12:08.681Z,26.08
2018-04-19T20:14:40.638Z,26.02
2018-04-19T20:17:20.877Z,26.04
2018-04-19T20:20:43.806Z,25.97
2018-04-19T20:23:17.446Z,25.75
2018-04-19T20:25:50.319Z,25.72
2018-04-19T20:28:22.189Z,25.70
2018-04-19T20:30:54.914Z,25.68
2018-04-19T20:33:26.885Z,25.60
2018-04-19T20:35:58.473Z,25.60
2018-04-19T20:38:31.280Z,25.54
2018-04-19T20:41:03.452Z,25.35
2018-04-19T20:43:35.834Z,25.22
2018-04-19T20:46:08.709Z,25.27
2018-04-19T20:48:40.597Z,25.16
2018-04-19T20:51:12.397Z,25.20
2018-04-19T20:53:46.942Z,25.12
2018-04-19T20:56:19.733Z,24.85
2018-04-19T20:58:52.186Z,24.88
2018-04-19T21:01:23.794Z,24.81
2018-04-19T21:03:57.215Z,24.78
2018-04-19T21:06:29.014Z,24.70
2018-04-19T21:09:00.595Z,24.63
2018-04-19T21:11:32.464Z,24.54
2018-04-19T21:14:03.864Z,24.56
2018-04-19T21:16:36.054Z,24.49
2018-04-19T21:19:15.043Z,24.44
2018-04-19T21:21:47.579Z,24.37
2018-04-19T21:24:22.756Z,24.28
2018-04-19T21:29:43.075Z,24.25
2018-04-19T21:32:19.361Z,24.25
2018-04-19T21:34:55.514Z,24.22
2018-04-19T21:37:27.187Z,24.18
2018-04-19T21:39:59.809Z,24.18
2018-04-19T21:42:32.064Z,24.07
2018-04-19T21:45:06.279Z,24.07
2018-04-19T21:47:38.258Z,23.96
2018-04-19T21:50:09.719Z,23.88
2018-04-19T21:52:48.250Z,23.89
2018-04-19T21:55:20.791Z,23.87
2018-04-19T21:57:52.301Z,23.93
2018-04-19T22:00:23.909Z,23.91
2018-04-19T22:02:58.200Z,23.93
2018-04-19T22:05:33.390Z,23.89
2018-04-19T22:08:06.142Z,23.78
2018-04-19T22:10:41.062Z,23.81
2018-04-19T22:13:14.712Z,23.72
2018-04-19T22:15:47.897Z,23.71
2018-04-19T22:18:21.997Z,23.75
2018-04-19T22:23:35.861Z,23.63
2018-04-19T22:26:08.007Z,23.62
2018-04-19T22:28:40.090Z,23.52
2018-04-19T22:31:15.011Z,23.60
2018-04-19T22:33:49.592Z,23.43
2018-04-19T22:36:26.475Z,23.51
2018-04-19T22:38:58.705Z,23.51
2018-04-19T22:41:31.657Z,23.31
2018-04-19T22:44:03.549Z,23.22
2018-04-19T22:46:37.647Z,22.93
2018-04-19T22:49:09.159Z,22.85
2018-04-19T22:51:42.706Z,22.69
2018-04-19T22:56:54.340Z,22.67
2018-04-19T22:59:26.051Z,22.67
2018-04-19T23:02:00.697Z,22.66
2018-04-19T23:04:36.625Z,22.70
2018-04-19T23:07:09.600Z,22.64
2018-04-19T23:09:41.210Z,22.65
2018-04-19T23:12:15.296Z,22.65
2018-04-19T23:14:47.326Z,22.64
2018-04-19T23:17:20.858Z,22.63
2018-04-19T23:19:52.224Z,22.56
2018-04-19T23:22:32.410Z,22.53
2018-04-19T23:25:03.971Z,22.64
2018-04-19T23:27:35.509Z,22.64
2018-04-19T23:30:14.111Z,22.60
2018-04-19T23:32:45.777Z,22.64
2018-04-19T23:38:08.619Z,22.63
2018-04-19T23:40:46.883Z,22.62
2018-04-19T23:43:19.359Z,22.60
2018-04-19T23:45:55.522Z,22.59
2018-04-19T23:48:27.859Z,22.58
2018-04-19T23:50:59.204Z,22.60
2018-04-19T23:53:30.841Z,22.47
2018-04-19T23:56:08.321Z,22.57
2018-04-19T23:58:40.365Z,22.55
